sensor_id;sensor_type;location;lat;lon;timestamp;P1;durP1;ratioP1;P2;durP2;ratioP2
16813;SDS011;8524;57.650;11.926;2023-05-09T00:00:30;3.07;;;2.60;;
16813;SDS011;8524;57.650;11.926;2023-05-09T00:02:57;3.10;;;2.83;;
16813;SDS011;8524;57.650;11.926;2023-05-09T00:05:24;2.67;;;2.40;;
16813;SDS011;8524;57.650;11.926;2023-05-09T00:07:52;2.70;;;2.50;;
16813;SDS011;8524;57.650;11.926;2023-05-09T00:10:19;2.77;;;2.50;;
16813;SDS011;8524;57.650;11.926;2023-05-09T00:12:47;2.60;;;2.40;;
16813;SDS011;8524;57.650;11.926;2023-05-09T00:15:15;3.33;;;2.50;;
16813;SDS011;8524;57.650;11.926;2023-05-09T00:17:43;2.80;;;2.60;;
16813;SDS011;8524;57.650;11.926;2023-05-09T00:20:10;3.30;;;3.00;;
16813;SDS011;8524;57.650;11.926;2023-05-09T00:22:38;4.03;;;2.50;;
16813;SDS011;8524;57.650;11.926;2023-05-09T00:25:06;5.27;;;2.80;;
16813;SDS011;8524;57.650;11.926;2023-05-09T00:27:34;3.30;;;2.97;;
16813;SDS011;8524;57.650;11.926;2023-05-09T00:30:03;3.17;;;2.53;;
16813;SDS011;8524;57.650;11.926;2023-05-09T00:32:31;4.00;;;2.90;;
16813;SDS011;8524;57.650;11.926;2023-05-09T00:34:59;2.53;;;2.33;;
16813;SDS011;8524;57.650;11.926;2023-05-09T00:37:27;4.03;;;3.10;;
16813;SDS011;8524;57.650;11.926;2023-05-09T00:39:54;3.00;;;2.53;;
16813;SDS011;8524;57.650;11.926;2023-05-09T00:42:21;2.83;;;2.53;;
16813;SDS011;8524;57.650;11.926;2023-05-09T00:44:48;2.90;;;2.57;;
16813;SDS011;8524;57.650;11.926;2023-05-09T00:47:17;2.70;;;2.30;;
16813;SDS011;8524;57.650;11.926;2023-05-09T00:49:45;2.70;;;2.50;;
16813;SDS011;8524;57.650;11.926;2023-05-09T00:52:12;3.60;;;2.57;;
16813;SDS011;8524;57.650;11.926;2023-05-09T00:54:39;3.20;;;2.73;;
16813;SDS011;8524;57.650;11.926;2023-05-09T00:57:07;3.23;;;2.40;;
16813;SDS011;8524;57.650;11.926;2023-05-09T00:59:34;3.73;;;2.53;;
16813;SDS011;8524;57.650;11.926;2023-05-09T01:02:01;2.60;;;2.33;;
16813;SDS011;8524;57.650;11.926;2023-05-09T01:04:30;2.63;;;2.40;;
16813;SDS011;8524;57.650;11.926;2023-05-09T01:07:01;3.17;;;2.67;;
16813;SDS011;8524;57.650;11.926;2023-05-09T01:09:33;2.50;;;2.30;;
16813;SDS011;8524;57.650;11.926;2023-05-09T01:12:06;2.57;;;2.37;;
16813;SDS011;8524;57.650;11.926;2023-05-09T01:14:43;4.03;;;2.33;;
16813;SDS011;8524;57.650;11.926;2023-05-09T01:17:19;3.97;;;2.60;;
16813;SDS011;8524;57.650;11.926;2023-05-09T01:20:00;3.87;;;2.50;;
16813;SDS011;8524;57.650;11.926;2023-05-09T01:22:35;2.70;;;2.40;;
16813;SDS011;8524;57.650;11.926;2023-05-09T01:25:26;3.20;;;2.43;;
16813;SDS011;8524;57.650;11.926;2023-05-09T01:28:11;2.93;;;2.30;;
16813;SDS011;8524;57.650;11.926;2023-05-09T01:30:44;2.80;;;2.43;;
16813;SDS011;8524;57.650;11.926;2023-05-09T01:33:16;2.77;;;2.40;;
16813;SDS011;8524;57.650;11.926;2023-05-09T01:35:45;2.90;;;2.60;;
16813;SDS011;8524;57.650;11.926;2023-05-09T01:38:18;2.70;;;2.50;;
16813;SDS011;8524;57.650;11.926;2023-05-09T01:40:49;3.53;;;2.20;;
16813;SDS011;8524;57.650;11.926;2023-05-09T01:43:20;2.50;;;2.30;;
16813;SDS011;8524;57.650;11.926;2023-05-09T01:45:52;3.77;;;2.20;;
16813;SDS011;8524;57.650;11.926;2023-05-09T01:48:20;3.63;;;2.80;;
16813;SDS011;8524;57.650;11.926;2023-05-09T01:50:51;3.00;;;2.40;;
16813;SDS011;8524;57.650;11.926;2023-05-09T01:53:18;3.17;;;2.73;;
16813;SDS011;8524;57.650;11.926;2023-05-09T01:55:47;2.63;;;2.30;;
16813;SDS011;8524;57.650;11.926;2023-05-09T01:58:16;2.47;;;2.17;;
16813;SDS011;8524;57.650;11.926;2023-05-09T02:00:44;3.33;;;2.53;;
16813;SDS011;8524;57.650;11.926;2023-05-09T02:03:13;2.90;;;2.30;;
16813;SDS011;8524;57.650;11.926;2023-05-09T02:05:41;2.90;;;2.60;;
16813;SDS011;8524;57.650;11.926;2023-05-09T02:08:09;2.90;;;2.60;;
16813;SDS011;8524;57.650;11.926;2023-05-09T02:10:38;3.80;;;2.30;;
16813;SDS011;8524;57.650;11.926;2023-05-09T02:13:07;2.60;;;2.40;;
16813;SDS011;8524;57.650;11.926;2023-05-09T02:15:34;2.60;;;2.40;;
16813;SDS011;8524;57.650;11.926;2023-05-09T02:18:01;3.47;;;2.77;;
16813;SDS011;8524;57.650;11.926;2023-05-09T02:20:30;4.03;;;2.27;;
16813;SDS011;8524;57.650;11.926;2023-05-09T02:22:59;2.33;;;2.13;;
16813;SDS011;8524;57.650;11.926;2023-05-09T02:25:27;3.70;;;2.80;;
16813;SDS011;8524;57.650;11.926;2023-05-09T02:27:55;2.53;;;2.30;;
16813;SDS011;8524;57.650;11.926;2023-05-09T02:30:23;3.00;;;2.80;;
16813;SDS011;8524;57.650;11.926;2023-05-09T02:32:52;2.30;;;2.10;;
16813;SDS011;8524;57.650;11.926;2023-05-09T02:35:23;3.30;;;2.47;;
16813;SDS011;8524;57.650;11.926;2023-05-09T02:37:52;3.00;;;2.80;;
16813;SDS011;8524;57.650;11.926;2023-05-09T02:40:20;2.50;;;2.30;;
16813;SDS011;8524;57.650;11.926;2023-05-09T02:42:47;2.27;;;2.03;;
16813;SDS011;8524;57.650;11.926;2023-05-09T02:45:14;3.30;;;2.50;;
16813;SDS011;8524;57.650;11.926;2023-05-09T02:47:41;3.10;;;2.80;;
16813;SDS011;8524;57.650;11.926;2023-05-09T02:50:09;4.00;;;2.67;;
16813;SDS011;8524;57.650;11.926;2023-05-09T02:52:36;3.77;;;2.77;;
16813;SDS011;8524;57.650;11.926;2023-05-09T02:55:06;2.93;;;2.63;;
16813;SDS011;8524;57.650;11.926;2023-05-09T02:57:33;2.80;;;2.60;;
16813;SDS011;8524;57.650;11.926;2023-05-09T03:00:01;3.00;;;2.57;;
16813;SDS011;8524;57.650;11.926;2023-05-09T03:02:28;2.60;;;2.40;;
16813;SDS011;8524;57.650;11.926;2023-05-09T03:04:55;4.00;;;2.50;;
16813;SDS011;8524;57.650;11.926;2023-05-09T03:07:22;3.10;;;2.80;;
16813;SDS011;8524;57.650;11.926;2023-05-09T03:09:49;3.03;;;2.60;;
16813;SDS011;8524;57.650;11.926;2023-05-09T03:12:18;3.77;;;2.97;;
16813;SDS011;8524;57.650;11.926;2023-05-09T03:14:45;2.60;;;2.40;;
16813;SDS011;8524;57.650;11.926;2023-05-09T03:17:12;3.60;;;2.70;;
16813;SDS011;8524;57.650;11.926;2023-05-09T03:19:41;2.60;;;2.40;;
16813;SDS011;8524;57.650;11.926;2023-05-09T03:22:08;3.13;;;2.67;;
16813;SDS011;8524;57.650;11.926;2023-05-09T03:24:35;2.97;;;2.70;;
16813;SDS011;8524;57.650;11.926;2023-05-09T03:27:02;3.73;;;2.70;;
16813;SDS011;8524;57.650;11.926;2023-05-09T03:29:31;2.77;;;2.53;;
16813;SDS011;8524;57.650;11.926;2023-05-09T03:31:58;2.97;;;2.60;;
16813;SDS011;8524;57.650;11.926;2023-05-09T03:34:25;2.87;;;2.67;;
16813;SDS011;8524;57.650;11.926;2023-05-09T03:36:52;4.60;;;2.77;;
16813;SDS011;8524;57.650;11.926;2023-05-09T03:39:19;3.20;;;2.60;;
16813;SDS011;8524;57.650;11.926;2023-05-09T03:41:46;2.80;;;2.60;;
16813;SDS011;8524;57.650;11.926;2023-05-09T03:44:13;2.80;;;2.60;;
16813;SDS011;8524;57.650;11.926;2023-05-09T03:46:41;3.80;;;2.60;;
16813;SDS011;8524;57.650;11.926;2023-05-09T03:49:09;3.27;;;2.90;;
16813;SDS011;8524;57.650;11.926;2023-05-09T03:51:36;3.50;;;2.80;;
16813;SDS011;8524;57.650;11.926;2023-05-09T03:54:03;3.10;;;2.80;;
16813;SDS011;8524;57.650;11.926;2023-05-09T03:56:30;3.93;;;2.97;;
16813;SDS011;8524;57.650;11.926;2023-05-09T03:58:57;3.33;;;2.43;;
16813;SDS011;8524;57.650;11.926;2023-05-09T04:01:24;3.43;;;2.80;;
16813;SDS011;8524;57.650;11.926;2023-05-09T04:03:53;3.00;;;2.47;;
16813;SDS011;8524;57.650;11.926;2023-05-09T04:06:21;3.17;;;2.67;;
16813;SDS011;8524;57.650;11.926;2023-05-09T04:08:49;3.93;;;2.47;;
16813;SDS011;8524;57.650;11.926;2023-05-09T04:11:16;3.23;;;2.53;;
16813;SDS011;8524;57.650;11.926;2023-05-09T04:13:43;3.03;;;2.73;;
16813;SDS011;8524;57.650;11.926;2023-05-09T04:16:10;3.37;;;2.50;;
16813;SDS011;8524;57.650;11.926;2023-05-09T04:18:37;4.50;;;2.90;;
16813;SDS011;8524;57.650;11.926;2023-05-09T04:21:07;3.97;;;2.90;;
16813;SDS011;8524;57.650;11.926;2023-05-09T04:23:34;2.80;;;2.60;;
16813;SDS011;8524;57.650;11.926;2023-05-09T04:26:02;5.30;;;2.70;;
16813;SDS011;8524;57.650;11.926;2023-05-09T04:28:30;3.90;;;2.70;;
16813;SDS011;8524;57.650;11.926;2023-05-09T04:30:57;3.17;;;2.87;;
16813;SDS011;8524;57.650;11.926;2023-05-09T04:33:24;3.07;;;2.70;;
16813;SDS011;8524;57.650;11.926;2023-05-09T04:35:53;3.23;;;2.93;;
16813;SDS011;8524;57.650;11.926;2023-05-09T04:38:23;3.93;;;2.90;;
16813;SDS011;8524;57.650;11.926;2023-05-09T04:40:50;3.03;;;2.70;;
16813;SDS011;8524;57.650;11.926;2023-05-09T04:43:17;3.23;;;2.87;;
16813;SDS011;8524;57.650;11.926;2023-05-09T04:45:44;3.67;;;2.93;;
16813;SDS011;8524;57.650;11.926;2023-05-09T04:48:11;2.73;;;2.53;;
16813;SDS011;8524;57.650;11.926;2023-05-09T04:50:39;3.00;;;2.47;;
16813;SDS011;8524;57.650;11.926;2023-05-09T04:53:06;2.97;;;2.70;;
16813;SDS011;8524;57.650;11.926;2023-05-09T04:55:36;4.83;;;3.07;;
16813;SDS011;8524;57.650;11.926;2023-05-09T04:58:03;3.37;;;3.07;;
16813;SDS011;8524;57.650;11.926;2023-05-09T05:00:30;3.50;;;3.20;;
16813;SDS011;8524;57.650;11.926;2023-05-09T05:02:57;3.43;;;2.60;;
16813;SDS011;8524;57.650;11.926;2023-05-09T05:05:24;3.70;;;2.70;;
16813;SDS011;8524;57.650;11.926;2023-05-09T05:07:51;4.23;;;2.97;;
16813;SDS011;8524;57.650;11.926;2023-05-09T05:10:18;3.33;;;2.60;;
16813;SDS011;8524;57.650;11.926;2023-05-09T05:12:47;4.10;;;3.00;;
16813;SDS011;8524;57.650;11.926;2023-05-09T05:15:14;4.67;;;3.17;;
16813;SDS011;8524;57.650;11.926;2023-05-09T05:17:43;4.43;;;2.80;;
16813;SDS011;8524;57.650;11.926;2023-05-09T05:20:10;4.03;;;2.90;;
16813;SDS011;8524;57.650;11.926;2023-05-09T05:22:37;3.50;;;3.20;;
16813;SDS011;8524;57.650;11.926;2023-05-09T05:25:05;3.40;;;3.10;;
16813;SDS011;8524;57.650;11.926;2023-05-09T05:27:32;4.40;;;3.30;;
16813;SDS011;8524;57.650;11.926;2023-05-09T05:30:01;5.77;;;3.57;;
16813;SDS011;8524;57.650;11.926;2023-05-09T05:32:28;3.27;;;2.87;;
16813;SDS011;8524;57.650;11.926;2023-05-09T05:34:55;3.60;;;2.80;;
16813;SDS011;8524;57.650;11.926;2023-05-09T05:37:22;4.07;;;2.93;;
16813;SDS011;8524;57.650;11.926;2023-05-09T05:39:50;4.30;;;3.20;;
16813;SDS011;8524;57.650;11.926;2023-05-09T05:42:17;3.67;;;3.10;;
16813;SDS011;8524;57.650;11.926;2023-05-09T05:44:44;3.73;;;3.23;;
16813;SDS011;8524;57.650;11.926;2023-05-09T05:47:12;5.57;;;3.30;;
16813;SDS011;8524;57.650;11.926;2023-05-09T05:49:39;4.40;;;3.40;;
16813;SDS011;8524;57.650;11.926;2023-05-09T05:52:06;3.97;;;3.20;;
16813;SDS011;8524;57.650;11.926;2023-05-09T05:54:33;4.00;;;2.90;;
16813;SDS011;8524;57.650;11.926;2023-05-09T05:57:00;4.07;;;3.20;;
16813;SDS011;8524;57.650;11.926;2023-05-09T05:59:27;5.97;;;3.30;;
16813;SDS011;8524;57.650;11.926;2023-05-09T06:01:54;4.60;;;3.67;;
16813;SDS011;8524;57.650;11.926;2023-05-09T06:04:23;4.17;;;3.17;;
16813;SDS011;8524;57.650;11.926;2023-05-09T06:06:50;10.13;;;4.00;;
16813;SDS011;8524;57.650;11.926;2023-05-09T06:09:17;3.90;;;3.47;;
16813;SDS011;8524;57.650;11.926;2023-05-09T06:11:44;3.80;;;3.43;;
16813;SDS011;8524;57.650;11.926;2023-05-09T06:14:11;4.60;;;3.13;;
16813;SDS011;8524;57.650;11.926;2023-05-09T06:16:39;5.10;;;3.17;;
16813;SDS011;8524;57.650;11.926;2023-05-09T06:19:06;4.47;;;2.97;;
16813;SDS011;8524;57.650;11.926;2023-05-09T06:21:36;6.20;;;3.80;;
16813;SDS011;8524;57.650;11.926;2023-05-09T06:24:06;4.63;;;3.43;;
16813;SDS011;8524;57.650;11.926;2023-05-09T06:26:33;4.70;;;3.20;;
16813;SDS011;8524;57.650;11.926;2023-05-09T06:29:01;5.17;;;3.70;;
16813;SDS011;8524;57.650;11.926;2023-05-09T06:31:28;5.73;;;3.27;;
16813;SDS011;8524;57.650;11.926;2023-05-09T06:33:55;6.63;;;3.60;;
16813;SDS011;8524;57.650;11.926;2023-05-09T06:36:22;4.83;;;3.27;;
16813;SDS011;8524;57.650;11.926;2023-05-09T06:38:50;5.10;;;3.57;;
16813;SDS011;8524;57.650;11.926;2023-05-09T06:41:17;4.30;;;3.80;;
16813;SDS011;8524;57.650;11.926;2023-05-09T06:43:45;6.37;;;3.90;;
16813;SDS011;8524;57.650;11.926;2023-05-09T06:46:12;4.07;;;3.60;;
16813;SDS011;8524;57.650;11.926;2023-05-09T06:48:39;4.70;;;3.60;;
16813;SDS011;8524;57.650;11.926;2023-05-09T06:51:09;5.07;;;3.63;;
16813;SDS011;8524;57.650;11.926;2023-05-09T06:53:36;10.43;;;3.73;;
16813;SDS011;8524;57.650;11.926;2023-05-09T06:56:05;6.93;;;3.60;;
16813;SDS011;8524;57.650;11.926;2023-05-09T06:58:35;4.07;;;2.90;;
16813;SDS011;8524;57.650;11.926;2023-05-09T07:01:02;4.27;;;3.30;;
16813;SDS011;8524;57.650;11.926;2023-05-09T07:03:30;4.57;;;3.43;;
16813;SDS011;8524;57.650;11.926;2023-05-09T07:05:57;4.60;;;3.60;;
16813;SDS011;8524;57.650;11.926;2023-05-09T07:08:24;5.73;;;3.60;;
16813;SDS011;8524;57.650;11.926;2023-05-09T07:10:51;5.37;;;3.63;;
16813;SDS011;8524;57.650;11.926;2023-05-09T07:13:19;4.70;;;3.67;;
16813;SDS011;8524;57.650;11.926;2023-05-09T07:15:46;5.90;;;3.87;;
16813;SDS011;8524;57.650;11.926;2023-05-09T07:18:13;4.37;;;2.90;;
16813;SDS011;8524;57.650;11.926;2023-05-09T07:20:43;5.90;;;3.20;;
16813;SDS011;8524;57.650;11.926;2023-05-09T07:23:11;4.77;;;3.40;;
16813;SDS011;8524;57.650;11.926;2023-05-09T07:25:38;5.53;;;3.53;;
16813;SDS011;8524;57.650;11.926;2023-05-09T07:28:08;4.27;;;3.40;;
16813;SDS011;8524;57.650;11.926;2023-05-09T07:30:37;6.80;;;3.50;;
16813;SDS011;8524;57.650;11.926;2023-05-09T07:33:04;17.37;;;4.63;;
16813;SDS011;8524;57.650;11.926;2023-05-09T07:35:32;7.90;;;3.67;;
16813;SDS011;8524;57.650;11.926;2023-05-09T07:37:59;8.03;;;3.90;;
16813;SDS011;8524;57.650;11.926;2023-05-09T07:40:26;9.30;;;4.03;;
16813;SDS011;8524;57.650;11.926;2023-05-09T07:42:53;4.57;;;3.33;;
16813;SDS011;8524;57.650;11.926;2023-05-09T07:45:20;3.67;;;3.33;;
16813;SDS011;8524;57.650;11.926;2023-05-09T07:47:49;4.00;;;3.00;;
16813;SDS011;8524;57.650;11.926;2023-05-09T07:50:16;8.07;;;3.40;;
16813;SDS011;8524;57.650;11.926;2023-05-09T07:52:47;4.77;;;3.10;;
16813;SDS011;8524;57.650;11.926;2023-05-09T07:55:16;6.37;;;3.37;;
16813;SDS011;8524;57.650;11.926;2023-05-09T07:57:43;4.73;;;3.73;;
16813;SDS011;8524;57.650;11.926;2023-05-09T08:00:11;4.43;;;3.30;;
16813;SDS011;8524;57.650;11.926;2023-05-09T08:02:43;7.63;;;3.50;;
16813;SDS011;8524;57.650;11.926;2023-05-09T08:05:12;4.93;;;3.10;;
16813;SDS011;8524;57.650;11.926;2023-05-09T08:07:39;8.57;;;3.20;;
16813;SDS011;8524;57.650;11.926;2023-05-09T08:10:07;7.03;;;2.97;;
16813;SDS011;8524;57.650;11.926;2023-05-09T08:12:35;5.83;;;3.03;;
16813;SDS011;8524;57.650;11.926;2023-05-09T08:15:02;5.53;;;3.10;;
16813;SDS011;8524;57.650;11.926;2023-05-09T08:17:30;7.77;;;3.50;;
16813;SDS011;8524;57.650;11.926;2023-05-09T08:19:58;8.00;;;3.13;;
16813;SDS011;8524;57.650;11.926;2023-05-09T08:22:27;5.97;;;3.30;;
16813;SDS011;8524;57.650;11.926;2023-05-09T08:24:54;8.83;;;3.47;;
16813;SDS011;8524;57.650;11.926;2023-05-09T08:27:21;8.03;;;3.10;;
16813;SDS011;8524;57.650;11.926;2023-05-09T08:29:48;8.17;;;3.03;;
16813;SDS011;8524;57.650;11.926;2023-05-09T08:32:15;11.07;;;3.00;;
16813;SDS011;8524;57.650;11.926;2023-05-09T08:34:43;4.67;;;2.90;;
16813;SDS011;8524;57.650;11.926;2023-05-09T08:37:11;5.60;;;3.03;;
16813;SDS011;8524;57.650;11.926;2023-05-09T08:39:39;5.63;;;2.70;;
16813;SDS011;8524;57.650;11.926;2023-05-09T08:42:06;10.33;;;3.20;;
16813;SDS011;8524;57.650;11.926;2023-05-09T08:44:35;11.87;;;3.67;;
16813;SDS011;8524;57.650;11.926;2023-05-09T08:47:02;8.43;;;3.03;;
16813;SDS011;8524;57.650;11.926;2023-05-09T08:49:30;9.47;;;2.87;;
16813;SDS011;8524;57.650;11.926;2023-05-09T08:51:57;3.90;;;2.60;;
16813;SDS011;8524;57.650;11.926;2023-05-09T08:54:25;5.00;;;2.83;;
16813;SDS011;8524;57.650;11.926;2023-05-09T08:56:55;6.77;;;2.97;;
16813;SDS011;8524;57.650;11.926;2023-05-09T08:59:23;11.23;;;3.03;;
16813;SDS011;8524;57.650;11.926;2023-05-09T09:01:52;8.50;;;2.93;;
16813;SDS011;8524;57.650;11.926;2023-05-09T09:04:19;11.27;;;2.70;;
16813;SDS011;8524;57.650;11.926;2023-05-09T09:06:48;2.97;;;2.43;;
16813;SDS011;8524;57.650;11.926;2023-05-09T09:09:16;5.13;;;2.60;;
16813;SDS011;8524;57.650;11.926;2023-05-09T09:11:45;10.93;;;3.40;;
16813;SDS011;8524;57.650;11.926;2023-05-09T09:14:17;11.97;;;3.03;;
16813;SDS011;8524;57.650;11.926;2023-05-09T09:16:49;4.93;;;2.60;;
16813;SDS011;8524;57.650;11.926;2023-05-09T09:19:18;3.17;;;2.47;;
16813;SDS011;8524;57.650;11.926;2023-05-09T09:21:47;2.87;;;2.27;;
16813;SDS011;8524;57.650;11.926;2023-05-09T09:24:20;8.93;;;2.80;;
16813;SDS011;8524;57.650;11.926;2023-05-09T09:26:48;5.13;;;2.73;;
16813;SDS011;8524;57.650;11.926;2023-05-09T09:29:18;10.63;;;2.73;;
16813;SDS011;8524;57.650;11.926;2023-05-09T09:31:47;7.43;;;2.80;;
16813;SDS011;8524;57.650;11.926;2023-05-09T09:34:19;9.90;;;2.80;;
16813;SDS011;8524;57.650;11.926;2023-05-09T09:36:47;4.23;;;2.27;;
16813;SDS011;8524;57.650;11.926;2023-05-09T09:39:14;3.10;;;2.20;;
16813;SDS011;8524;57.650;11.926;2023-05-09T09:41:42;3.50;;;2.20;;
16813;SDS011;8524;57.650;11.926;2023-05-09T09:44:10;5.23;;;2.63;;
16813;SDS011;8524;57.650;11.926;2023-05-09T09:46:43;13.20;;;2.50;;
16813;SDS011;8524;57.650;11.926;2023-05-09T09:49:12;10.00;;;2.70;;
16813;SDS011;8524;57.650;11.926;2023-05-09T09:51:40;3.97;;;2.20;;
16813;SDS011;8524;57.650;11.926;2023-05-09T09:54:08;7.17;;;2.40;;
16813;SDS011;8524;57.650;11.926;2023-05-09T09:56:37;6.07;;;2.27;;
16813;SDS011;8524;57.650;11.926;2023-05-09T09:59:08;3.90;;;2.20;;
16813;SDS011;8524;57.650;11.926;2023-05-09T10:01:54;10.93;;;2.77;;
16813;SDS011;8524;57.650;11.926;2023-05-09T10:04:23;4.80;;;2.33;;
16813;SDS011;8524;57.650;11.926;2023-05-09T10:06:52;6.93;;;2.20;;
16813;SDS011;8524;57.650;11.926;2023-05-09T10:09:21;7.93;;;2.80;;
16813;SDS011;8524;57.650;11.926;2023-05-09T10:11:51;4.27;;;2.37;;
16813;SDS011;8524;57.650;11.926;2023-05-09T10:14:23;4.37;;;2.27;;
16813;SDS011;8524;57.650;11.926;2023-05-09T10:16:53;4.90;;;2.43;;
16813;SDS011;8524;57.650;11.926;2023-05-09T10:19:24;7.28;;;2.42;;
16813;SDS011;8524;57.650;11.926;2023-05-09T10:21:54;2.40;;;2.20;;
16813;SDS011;8524;57.650;11.926;2023-05-09T10:24:25;6.20;;;2.57;;
16813;SDS011;8524;57.650;11.926;2023-05-09T10:26:55;4.67;;;2.27;;
16813;SDS011;8524;57.650;11.926;2023-05-09T10:29:28;4.70;;;2.13;;
16813;SDS011;8524;57.650;11.926;2023-05-09T10:32:02;14.43;;;2.90;;
16813;SDS011;8524;57.650;11.926;2023-05-09T10:34:37;6.17;;;2.50;;
16813;SDS011;8524;57.650;11.926;2023-05-09T10:37:09;5.60;;;2.00;;
16813;SDS011;8524;57.650;11.926;2023-05-09T10:39:37;7.17;;;2.60;;
16813;SDS011;8524;57.650;11.926;2023-05-09T10:42:08;4.87;;;2.10;;
16813;SDS011;8524;57.650;11.926;2023-05-09T10:44:36;5.43;;;2.07;;
16813;SDS011;8524;57.650;11.926;2023-05-09T10:47:05;5.77;;;2.13;;
16813;SDS011;8524;57.650;11.926;2023-05-09T10:49:33;5.03;;;2.30;;
16813;SDS011;8524;57.650;11.926;2023-05-09T10:52:01;9.07;;;2.67;;
16813;SDS011;8524;57.650;11.926;2023-05-09T10:54:29;3.67;;;2.30;;
16813;SDS011;8524;57.650;11.926;2023-05-09T10:57:01;4.80;;;2.40;;
16813;SDS011;8524;57.650;11.926;2023-05-09T10:59:36;4.63;;;2.20;;
16813;SDS011;8524;57.650;11.926;2023-05-09T11:02:09;15.10;;;2.80;;
16813;SDS011;8524;57.650;11.926;2023-05-09T11:04:41;4.90;;;2.20;;
16813;SDS011;8524;57.650;11.926;2023-05-09T11:07:21;4.13;;;2.00;;
16813;SDS011;8524;57.650;11.926;2023-05-09T11:09:50;5.83;;;2.27;;
16813;SDS011;8524;57.650;11.926;2023-05-09T11:12:18;6.87;;;2.37;;
16813;SDS011;8524;57.650;11.926;2023-05-09T11:14:47;2.87;;;1.90;;
16813;SDS011;8524;57.650;11.926;2023-05-09T11:17:28;4.27;;;2.10;;
16813;SDS011;8524;57.650;11.926;2023-05-09T11:19:58;6.20;;;1.90;;
16813;SDS011;8524;57.650;11.926;2023-05-09T11:22:29;14.77;;;3.20;;
16813;SDS011;8524;57.650;11.926;2023-05-09T11:25:03;4.13;;;2.13;;
16813;SDS011;8524;57.650;11.926;2023-05-09T11:27:41;7.70;;;2.20;;
16813;SDS011;8524;57.650;11.926;2023-05-09T11:30:10;4.80;;;1.73;;
16813;SDS011;8524;57.650;11.926;2023-05-09T11:32:44;4.53;;;1.87;;
16813;SDS011;8524;57.650;11.926;2023-05-09T11:35:12;7.03;;;1.83;;
16813;SDS011;8524;57.650;11.926;2023-05-09T11:37:45;3.10;;;1.70;;
16813;SDS011;8524;57.650;11.926;2023-05-09T11:40:14;3.57;;;1.80;;
16813;SDS011;8524;57.650;11.926;2023-05-09T11:42:43;4.67;;;1.63;;
16813;SDS011;8524;57.650;11.926;2023-05-09T11:45:11;3.20;;;1.50;;
16813;SDS011;8524;57.650;11.926;2023-05-09T11:47:39;20.53;;;2.83;;
16813;SDS011;8524;57.650;11.926;2023-05-09T11:50:11;9.60;;;2.60;;
16813;SDS011;8524;57.650;11.926;2023-05-09T11:52:39;8.47;;;1.67;;
16813;SDS011;8524;57.650;11.926;2023-05-09T11:55:06;4.13;;;1.30;;
16813;SDS011;8524;57.650;11.926;2023-05-09T11:57:35;2.17;;;1.57;;
16813;SDS011;8524;57.650;11.926;2023-05-09T12:00:05;3.77;;;1.60;;
16813;SDS011;8524;57.650;11.926;2023-05-09T12:02:34;5.33;;;1.50;;
16813;SDS011;8524;57.650;11.926;2023-05-09T12:05:10;3.60;;;1.40;;
16813;SDS011;8524;57.650;11.926;2023-05-09T12:07:38;2.77;;;1.60;;
16813;SDS011;8524;57.650;11.926;2023-05-09T12:10:06;4.37;;;1.37;;
16813;SDS011;8524;57.650;11.926;2023-05-09T12:12:34;4.80;;;1.27;;
16813;SDS011;8524;57.650;11.926;2023-05-09T12:15:03;6.83;;;1.77;;
16813;SDS011;8524;57.650;11.926;2023-05-09T12:17:32;4.03;;;1.60;;
16813;SDS011;8524;57.650;11.926;2023-05-09T12:20:00;13.17;;;2.37;;
16813;SDS011;8524;57.650;11.926;2023-05-09T12:22:30;4.17;;;1.40;;
16813;SDS011;8524;57.650;11.926;2023-05-09T12:24:59;1.70;;;1.40;;
16813;SDS011;8524;57.650;11.926;2023-05-09T12:27:28;8.70;;;1.73;;
16813;SDS011;8524;57.650;11.926;2023-05-09T12:29:57;5.50;;;1.43;;
16813;SDS011;8524;57.650;11.926;2023-05-09T12:32:25;7.77;;;1.70;;
16813;SDS011;8524;57.650;11.926;2023-05-09T12:34:55;2.57;;;1.40;;
16813;SDS011;8524;57.650;11.926;2023-05-09T12:37:23;2.60;;;1.33;;
16813;SDS011;8524;57.650;11.926;2023-05-09T12:40:01;4.20;;;1.53;;
16813;SDS011;8524;57.650;11.926;2023-05-09T12:42:29;3.67;;;1.40;;
16813;SDS011;8524;57.650;11.926;2023-05-09T12:44:57;3.60;;;1.40;;
16813;SDS011;8524;57.650;11.926;2023-05-09T12:47:27;3.80;;;1.60;;
16813;SDS011;8524;57.650;11.926;2023-05-09T12:49:56;3.47;;;1.53;;
16813;SDS011;8524;57.650;11.926;2023-05-09T12:52:24;4.23;;;1.50;;
16813;SDS011;8524;57.650;11.926;2023-05-09T12:55:04;2.13;;;1.37;;
16813;SDS011;8524;57.650;11.926;2023-05-09T12:57:32;3.10;;;1.20;;
16813;SDS011;8524;57.650;11.926;2023-05-09T13:00:00;3.43;;;1.40;;
16813;SDS011;8524;57.650;11.926;2023-05-09T13:02:32;3.13;;;1.40;;
16813;SDS011;8524;57.650;11.926;2023-05-09T13:05:06;6.03;;;1.43;;
16813;SDS011;8524;57.650;11.926;2023-05-09T13:07:38;2.20;;;1.40;;
16813;SDS011;8524;57.650;11.926;2023-05-09T13:10:11;3.93;;;1.40;;
16813;SDS011;8524;57.650;11.926;2023-05-09T13:12:39;3.90;;;1.67;;
16813;SDS011;8524;57.650;11.926;2023-05-09T13:15:09;2.73;;;1.53;;
16813;SDS011;8524;57.650;11.926;2023-05-09T13:17:36;3.43;;;1.33;;
16813;SDS011;8524;57.650;11.926;2023-05-09T13:20:04;2.83;;;1.30;;
16813;SDS011;8524;57.650;11.926;2023-05-09T13:22:32;2.53;;;1.50;;
16813;SDS011;8524;57.650;11.926;2023-05-09T13:24:59;2.37;;;1.57;;
16813;SDS011;8524;57.650;11.926;2023-05-09T13:27:28;6.00;;;2.23;;
16813;SDS011;8524;57.650;11.926;2023-05-09T13:29:56;3.13;;;1.50;;
16813;SDS011;8524;57.650;11.926;2023-05-09T13:32:23;2.13;;;1.50;;
16813;SDS011;8524;57.650;11.926;2023-05-09T13:34:50;7.63;;;1.50;;
16813;SDS011;8524;57.650;11.926;2023-05-09T13:37:17;2.77;;;1.60;;
16813;SDS011;8524;57.650;11.926;2023-05-09T13:39:45;3.03;;;1.60;;
16813;SDS011;8524;57.650;11.926;2023-05-09T13:42:12;3.73;;;1.57;;
16813;SDS011;8524;57.650;11.926;2023-05-09T13:44:41;4.97;;;1.67;;
16813;SDS011;8524;57.650;11.926;2023-05-09T13:47:08;6.17;;;1.80;;
16813;SDS011;8524;57.650;11.926;2023-05-09T13:49:35;3.73;;;1.57;;
16813;SDS011;8524;57.650;11.926;2023-05-09T13:52:03;4.93;;;1.70;;
16813;SDS011;8524;57.650;11.926;2023-05-09T13:54:30;5.17;;;1.70;;
16813;SDS011;8524;57.650;11.926;2023-05-09T13:56:59;3.73;;;1.70;;
16813;SDS011;8524;57.650;11.926;2023-05-09T13:59:27;3.83;;;1.77;;
16813;SDS011;8524;57.650;11.926;2023-05-09T14:01:56;2.63;;;1.40;;
16813;SDS011;8524;57.650;11.926;2023-05-09T14:04:24;1.87;;;1.50;;
16813;SDS011;8524;57.650;11.926;2023-05-09T14:06:51;2.70;;;1.60;;
16813;SDS011;8524;57.650;11.926;2023-05-09T14:09:19;2.97;;;1.47;;
16813;SDS011;8524;57.650;11.926;2023-05-09T14:11:46;2.43;;;1.50;;
16813;SDS011;8524;57.650;11.926;2023-05-09T14:14:15;2.43;;;1.60;;
16813;SDS011;8524;57.650;11.926;2023-05-09T14:16:42;5.57;;;1.60;;
16813;SDS011;8524;57.650;11.926;2023-05-09T14:19:11;1.63;;;1.37;;
16813;SDS011;8524;57.650;11.926;2023-05-09T14:21:39;2.03;;;1.70;;
16813;SDS011;8524;57.650;11.926;2023-05-09T14:24:06;4.37;;;1.90;;
16813;SDS011;8524;57.650;11.926;2023-05-09T14:26:34;2.60;;;1.60;;
16813;SDS011;8524;57.650;11.926;2023-05-09T14:29:02;3.90;;;1.50;;
16813;SDS011;8524;57.650;11.926;2023-05-09T14:31:29;5.63;;;1.73;;
16813;SDS011;8524;57.650;11.926;2023-05-09T14:33:56;3.70;;;1.60;;
16813;SDS011;8524;57.650;11.926;2023-05-09T14:36:25;3.10;;;1.53;;
16813;SDS011;8524;57.650;11.926;2023-05-09T14:38:53;3.70;;;1.83;;
16813;SDS011;8524;57.650;11.926;2023-05-09T14:41:20;3.30;;;1.80;;
16813;SDS011;8524;57.650;11.926;2023-05-09T14:43:47;6.23;;;1.90;;
16813;SDS011;8524;57.650;11.926;2023-05-09T14:46:15;4.37;;;1.90;;
16813;SDS011;8524;57.650;11.926;2023-05-09T14:48:42;3.67;;;1.87;;
16813;SDS011;8524;57.650;11.926;2023-05-09T14:51:09;3.47;;;2.00;;
16813;SDS011;8524;57.650;11.926;2023-05-09T14:53:37;4.80;;;1.90;;
16813;SDS011;8524;57.650;11.926;2023-05-09T14:56:06;2.80;;;1.80;;